createdAt,value
2023-05-11T00:00:52.547Z,100.00
2023-05-11T00:03:19.329Z,100.00
2023-05-11T00:05:49.506Z,100.00
2023-05-11T00:08:17.376Z,100.00
2023-05-11T00:10:47.068Z,100.00
2023-05-11T00:13:13.869Z,100.00
2023-05-11T00:15:40.760Z,100.00
2023-05-11T00:18:07.522Z,100.00
2023-05-11T00:20:34.226Z,100.00
2023-05-11T00:23:00.912Z,100.00
2023-05-11T00:25:27.654Z,100.00
2023-05-11T00:27:54.354Z,100.00
2023-05-11T00:30:21.258Z,100.00
2023-05-11T00:32:49.033Z,100.00
2023-05-11T00:35:15.928Z,100.00
2023-05-11T00:37:42.581Z,100.00
2023-05-11T00:40:09.680Z,100.00
2023-05-11T00:42:36.450Z,100.00
2023-05-11T00:45:03.293Z,100.00
2023-05-11T00:47:30.339Z,100.00
2023-05-11T00:49:57.971Z,100.00
2023-05-11T00:52:25.210Z,100.00
2023-05-11T00:54:52.296Z,100.00
2023-05-11T00:57:18.982Z,100.00
2023-05-11T00:59:47.144Z,100.00
2023-05-11T01:02:13.775Z,100.00
2023-05-11T01:04:40.758Z,100.00
2023-05-11T01:07:19.505Z,100.00
2023-05-11T01:10:30.720Z,100.00
2023-05-11T01:14:02.240Z,100.00
2023-05-11T01:16:33.910Z,100.00
2023-05-11T01:19:11.254Z,100.00
2023-05-11T01:21:39.655Z,100.00
2023-05-11T01:24:09.095Z,100.00
2023-05-11T01:26:49.525Z,100.00
2023-05-11T01:29:18.425Z,100.00
2023-05-11T01:31:48.410Z,100.00
2023-05-11T01:34:21.672Z,100.00
2023-05-11T01:36:56.002Z,100.00
2023-05-11T01:39:32.808Z,100.00
2023-05-11T01:42:07.118Z,100.00
2023-05-11T01:44:35.649Z,100.00
2023-05-11T01:47:03.718Z,100.00
2023-05-11T01:49:33.776Z,100.00
2023-05-11T01:52:03.847Z,100.00
2023-05-11T01:54:31.701Z,100.00
2023-05-11T01:57:00.690Z,100.00
2023-05-11T01:59:28.999Z,100.00
2023-05-11T02:01:57.925Z,100.00
2023-05-11T02:04:25.905Z,100.00
2023-05-11T02:06:52.733Z,100.00
2023-05-11T02:09:21.957Z,100.00
2023-05-11T02:11:51.474Z,100.00
2023-05-11T02:14:20.427Z,100.00
2023-05-11T02:16:49.921Z,100.00
2023-05-11T02:19:18.356Z,100.00
2023-05-11T02:21:46.323Z,100.00
2023-05-11T02:24:13.189Z,100.00
2023-05-11T02:26:39.817Z,100.00
2023-05-11T02:29:06.808Z,100.00
2023-05-11T02:31:40.298Z,100.00
2023-05-11T02:34:19.042Z,100.00
2023-05-11T02:36:48.339Z,100.00
2023-05-11T02:39:21.780Z,100.00
2023-05-11T02:41:55.185Z,100.00
2023-05-11T02:44:24.523Z,100.00
2023-05-11T02:46:54.922Z,100.00
2023-05-11T02:49:25.409Z,100.00
2023-05-11T02:51:54.841Z,100.00
2023-05-11T02:54:23.937Z,100.00
2023-05-11T02:56:53.073Z,100.00
2023-05-11T02:59:20.970Z,100.00
2023-05-11T03:01:48.508Z,100.00
2023-05-11T03:04:15.558Z,100.00
2023-05-11T03:06:42.209Z,100.00
2023-05-11T03:09:10.262Z,100.00
2023-05-11T03:11:42.544Z,100.00
2023-05-11T03:14:09.510Z,100.00
2023-05-11T03:16:37.979Z,100.00
2023-05-11T03:19:07.353Z,100.00
2023-05-11T03:21:35.454Z,100.00
2023-05-11T03:24:05.569Z,100.00
2023-05-11T03:26:33.644Z,100.00
2023-05-11T03:29:02.371Z,100.00
2023-05-11T03:31:29.491Z,100.00
2023-05-11T03:33:58.793Z,100.00
2023-05-11T03:36:27.067Z,100.00
2023-05-11T03:38:58.828Z,100.00
2023-05-11T03:41:34.144Z,100.00
2023-05-11T03:44:05.665Z,100.00
2023-05-11T03:46:37.891Z,100.00
2023-05-11T03:49:08.011Z,100.00
2023-05-11T03:51:36.385Z,100.00
2023-05-11T03:54:03.507Z,100.00
2023-05-11T03:56:30.485Z,100.00
2023-05-11T03:58:57.860Z,100.00
2023-05-11T04:01:26.240Z,100.00
2023-05-11T04:03:53.606Z,100.00
2023-05-11T04:06:22.394Z,100.00
2023-05-11T04:09:12.003Z,100.00
2023-05-11T04:11:39.074Z,100.00
2023-05-11T04:14:05.885Z,100.00
2023-05-11T04:16:32.700Z,100.00
2023-05-11T04:18:59.372Z,100.00
2023-05-11T04:21:26.211Z,100.00
2023-05-11T04:23:52.905Z,100.00
2023-05-11T04:26:19.570Z,100.00
2023-05-11T04:28:46.325Z,100.00
2023-05-11T04:31:14.093Z,100.00
2023-05-11T04:33:40.888Z,100.00
2023-05-11T04:36:07.820Z,100.00
2023-05-11T04:38:34.507Z,100.00
2023-05-11T04:41:05.755Z,100.00
2023-05-11T04:43:32.799Z,100.00
2023-05-11T04:45:59.483Z,100.00
2023-05-11T04:48:27.939Z,100.00
2023-05-11T04:50:55.477Z,100.00
2023-05-11T04:53:25.634Z,100.00
2023-05-11T04:55:52.675Z,100.00
2023-05-11T04:58:19.465Z,100.00
2023-05-11T05:00:46.133Z,100.00
2023-05-11T05:03:12.833Z,100.00
2023-05-11T05:05:39.544Z,100.00
2023-05-11T05:08:07.351Z,100.00
2023-05-11T05:10:34.030Z,100.00
2023-05-11T05:13:00.748Z,100.00
2023-05-11T05:15:27.446Z,100.00
2023-05-11T05:17:54.241Z,100.00
2023-05-11T05:20:21.149Z,100.00
2023-05-11T05:22:47.989Z,100.00
2023-05-11T05:25:14.650Z,100.00
2023-05-11T05:27:41.571Z,100.00
2023-05-11T05:30:12.152Z,100.00
2023-05-11T05:32:38.863Z,100.00
2023-05-11T05:35:05.906Z,100.00
2023-05-11T05:37:32.863Z,100.00
2023-05-11T05:39:59.557Z,100.00
2023-05-11T05:42:26.350Z,100.00
2023-05-11T05:44:53.107Z,100.00
2023-05-11T05:47:19.904Z,100.00
2023-05-11T05:49:47.077Z,100.00
2023-05-11T05:52:13.851Z,100.00
2023-05-11T05:54:41.431Z,100.00
2023-05-11T05:57:08.102Z,100.00
2023-05-11T05:59:35.084Z,100.00
2023-05-11T06:02:02.104Z,100.00
2023-05-11T06:04:29.738Z,100.00
2023-05-11T06:06:57.922Z,100.00
2023-05-11T06:09:24.577Z,100.00
2023-05-11T06:11:51.284Z,100.00
2023-05-11T06:14:18.661Z,100.00
2023-05-11T06:16:45.490Z,100.00
2023-05-11T06:19:13.411Z,100.00
2023-05-11T06:21:42.902Z,100.00
2023-05-11T06:24:09.768Z,100.00
2023-05-11T06:26:38.605Z,100.00
2023-05-11T06:29:05.376Z,100.00
2023-05-11T06:31:32.612Z,100.00
2023-05-11T06:33:59.767Z,100.00
2023-05-11T06:36:28.644Z,100.00
2023-05-11T06:38:55.459Z,100.00
2023-05-11T06:41:22.682Z,100.00
2023-05-11T06:43:49.672Z,100.00
2023-05-11T06:46:27.744Z,100.00
2023-05-11T06:48:54.552Z,100.00
2023-05-11T06:51:22.018Z,100.00
2023-05-11T06:53:49.025Z,100.00
2023-05-11T06:56:15.926Z,100.00
2023-05-11T06:58:43.067Z,100.00
2023-05-11T07:01:11.680Z,100.00
2023-05-11T07:03:38.382Z,100.00
2023-05-11T07:06:05.221Z,100.00
2023-05-11T07:08:31.939Z,100.00
2023-05-11T07:10:58.687Z,100.00
2023-05-11T07:13:25.484Z,100.00
2023-05-11T07:15:53.056Z,100.00
2023-05-11T07:18:20.822Z,100.00
2023-05-11T07:20:50.047Z,100.00
2023-05-11T07:23:17.210Z,100.00
2023-05-11T07:25:43.879Z,100.00
2023-05-11T07:28:10.617Z,100.00
2023-05-11T07:30:37.278Z,100.00
2023-05-11T07:33:04.228Z,100.00
2023-05-11T07:35:30.931Z,100.00
2023-05-11T07:37:57.661Z,100.00
2023-05-11T07:40:24.877Z,100.00
2023-05-11T07:42:51.776Z,100.00
2023-05-11T07:45:18.464Z,100.00
2023-05-11T07:47:45.321Z,98.52
2023-05-11T07:50:12.739Z,99.24
2023-05-11T07:52:39.610Z,98.76
2023-05-11T07:55:06.669Z,98.41
2023-05-11T07:57:33.393Z,99.79
2023-05-11T08:00:00.084Z,99.70
2023-05-11T08:02:26.908Z,99.94
2023-05-11T08:04:53.683Z,99.38
2023-05-11T08:07:20.405Z,100.00
2023-05-11T08:09:47.052Z,98.82
2023-05-11T08:12:14.852Z,97.07
2023-05-11T08:14:43.303Z,99.08
2023-05-11T08:17:10.149Z,96.69
2023-05-11T08:19:37.148Z,97.97
2023-05-11T08:22:04.509Z,95.77
2023-05-11T08:24:31.336Z,96.87
2023-05-11T08:26:58.000Z,95.01
2023-05-11T08:29:27.482Z,93.38
2023-05-11T08:31:54.516Z,93.15
2023-05-11T08:34:22.395Z,92.84
2023-05-11T08:36:49.210Z,91.52
2023-05-11T08:39:24.697Z,88.98
2023-05-11T08:42:02.713Z,87.32
2023-05-11T08:44:30.705Z,88.71
2023-05-11T08:47:11.342Z,87.90
2023-05-11T08:49:44.970Z,88.50
2023-05-11T08:52:13.948Z,88.92
2023-05-11T08:54:40.626Z,88.10
2023-05-11T08:57:07.951Z,88.90
2023-05-11T08:59:35.064Z,87.25
2023-05-11T09:02:04.400Z,88.22
2023-05-11T09:04:32.481Z,88.01
2023-05-11T09:06:59.966Z,89.37
2023-05-11T09:09:26.801Z,88.90
2023-05-11T09:11:54.302Z,88.02
2023-05-11T09:14:27.150Z,88.82
2023-05-11T09:16:54.121Z,86.98
2023-05-11T09:19:21.248Z,87.39
2023-05-11T09:21:48.214Z,88.70
2023-05-11T09:24:14.995Z,89.37
2023-05-11T09:26:41.712Z,87.96
2023-05-11T09:29:08.811Z,87.30
2023-05-11T09:31:44.377Z,86.38
2023-05-11T09:34:22.792Z,86.12
2023-05-11T09:36:54.579Z,87.52
2023-05-11T09:39:42.225Z,88.84
2023-05-11T09:42:21.649Z,88.36
2023-05-11T09:44:48.855Z,86.11
2023-05-11T09:47:17.677Z,84.45
2023-05-11T09:49:46.500Z,84.96
2023-05-11T09:52:14.792Z,82.85
2023-05-11T09:54:43.989Z,84.75
2023-05-11T09:57:27.099Z,82.70
2023-05-11T09:59:55.124Z,80.82
2023-05-11T10:02:23.576Z,80.45
2023-05-11T10:04:51.721Z,79.26
2023-05-11T10:07:36.836Z,80.75
2023-05-11T10:10:08.713Z,79.49
2023-05-11T10:12:38.586Z,78.52
2023-05-11T10:15:07.566Z,76.68
2023-05-11T10:17:34.382Z,75.56
2023-05-11T10:20:04.238Z,76.67
2023-05-11T10:22:31.772Z,76.18
2023-05-11T10:24:59.753Z,76.00
2023-05-11T10:27:27.241Z,70.99
2023-05-11T10:29:54.019Z,72.78
2023-05-11T10:32:21.627Z,74.41
2023-05-11T10:34:50.543Z,77.76
2023-05-11T10:37:17.821Z,76.64
2023-05-11T10:39:48.416Z,77.87
2023-05-11T10:42:25.628Z,76.53
2023-05-11T10:45:16.534Z,74.87
2023-05-11T10:48:20.681Z,73.64
2023-05-11T10:51:12.177Z,72.57
2023-05-11T10:53:57.277Z,71.90
2023-05-11T10:56:42.519Z,71.40
2023-05-11T10:59:45.103Z,70.17
2023-05-11T11:02:12.179Z,68.20
2023-05-11T11:05:10.883Z,63.27
2023-05-11T11:07:57.603Z,62.09
2023-05-11T11:10:37.728Z,57.84
2023-05-11T11:13:09.782Z,57.87
2023-05-11T11:15:54.821Z,57.89
2023-05-11T11:18:28.979Z,58.58
2023-05-11T11:20:57.776Z,61.38
2023-05-11T11:23:39.601Z,58.76
2023-05-11T11:26:07.941Z,59.04
2023-05-11T11:29:02.647Z,58.02
2023-05-11T11:31:34.371Z,59.75
2023-05-11T11:34:37.295Z,57.86
2023-05-11T11:37:05.075Z,57.12
2023-05-11T11:39:43.640Z,56.88
2023-05-11T11:42:15.223Z,53.76
2023-05-11T11:44:43.458Z,53.10
2023-05-11T11:47:20.794Z,55.06
2023-05-11T11:49:50.010Z,54.37
2023-05-11T11:52:29.085Z,53.87
2023-05-11T11:54:57.211Z,50.59
2023-05-11T11:57:29.689Z,51.39
2023-05-11T11:59:56.482Z,50.88
2023-05-11T12:02:23.513Z,51.64
2023-05-11T12:05:14.690Z,50.23
2023-05-11T12:07:43.858Z,47.94
2023-05-11T12:10:13.381Z,47.65
2023-05-11T12:12:41.023Z,47.85
2023-05-11T12:15:08.255Z,47.25
2023-05-11T12:17:38.807Z,47.17
2023-05-11T12:20:14.497Z,47.36
2023-05-11T12:22:41.954Z,46.10
2023-05-11T12:25:11.308Z,45.10
2023-05-11T12:28:06.364Z,45.09
2023-05-11T12:30:34.347Z,45.05
2023-05-11T12:33:04.279Z,44.90
2023-05-11T12:35:33.921Z,44.68
2023-05-11T12:38:04.734Z,44.00
2023-05-11T12:40:31.801Z,42.73
2023-05-11T12:43:00.045Z,43.92
2023-05-11T12:45:28.233Z,45.29
2023-05-11T12:47:57.234Z,44.33
2023-05-11T12:50:24.250Z,45.98
2023-05-11T12:52:51.001Z,45.65
2023-05-11T12:55:31.189Z,46.84
2023-05-11T12:58:18.763Z,47.88
2023-05-11T13:00:52.723Z,49.27
2023-05-11T13:03:24.467Z,48.27
2023-05-11T13:05:52.294Z,49.63
2023-05-11T13:08:19.909Z,50.83
2023-05-11T13:10:49.909Z,52.68
2023-05-11T13:13:29.259Z,54.93
2023-05-11T13:15:56.163Z,55.25
2023-05-11T13:18:23.237Z,58.43
2023-05-11T13:21:05.498Z,58.79
2023-05-11T13:23:32.409Z,57.04
2023-05-11T13:25:59.045Z,56.93
2023-05-11T13:28:26.564Z,55.48
2023-05-11T13:31:03.178Z,56.67
2023-05-11T13:33:30.169Z,54.42
2023-05-11T13:35:56.837Z,52.53
2023-05-11T13:38:23.475Z,52.03
2023-05-11T13:40:50.198Z,49.42
2023-05-11T13:43:16.802Z,51.57
2023-05-11T13:45:43.493Z,52.97
2023-05-11T13:48:10.977Z,52.47
2023-05-11T13:50:37.808Z,53.17
2023-05-11T13:53:04.597Z,52.68
2023-05-11T13:55:31.741Z,51.99
2023-05-11T13:57:58.484Z,52.75
2023-05-11T14:00:25.327Z,50.55
2023-05-11T14:02:52.640Z,50.28
2023-05-11T14:05:19.759Z,50.07
2023-05-11T14:07:48.474Z,49.74
2023-05-11T14:10:17.187Z,51.78
2023-05-11T14:12:44.172Z,52.40
2023-05-11T14:15:11.442Z,51.21
2023-05-11T14:17:38.296Z,49.39
2023-05-11T14:20:06.170Z,48.27
2023-05-11T14:22:32.868Z,49.06
2023-05-11T14:25:00.040Z,44.69
2023-05-11T14:27:26.890Z,46.08
2023-05-11T14:29:54.390Z,47.65
2023-05-11T14:32:21.176Z,46.70
2023-05-11T14:34:48.819Z,45.70
2023-05-11T14:37:15.535Z,46.62
2023-05-11T14:39:42.294Z,45.49
2023-05-11T14:42:09.497Z,46.13
2023-05-11T14:44:36.191Z,45.33
2023-05-11T14:47:03.009Z,44.36
2023-05-11T14:49:29.671Z,43.83
2023-05-11T14:51:57.665Z,45.42
2023-05-11T14:54:24.425Z,45.68
2023-05-11T14:56:56.227Z,45.00
2023-05-11T14:59:24.437Z,44.49
2023-05-11T15:01:51.199Z,46.91
2023-05-11T15:04:19.232Z,46.90
2023-05-11T15:06:46.267Z,45.31
2023-05-11T15:09:13.592Z,45.51
2023-05-11T15:11:40.597Z,46.65
2023-05-11T15:14:07.375Z,46.66
2023-05-11T15:16:34.097Z,47.12
2023-05-11T15:19:00.910Z,47.38
2023-05-11T15:21:27.815Z,47.33
2023-05-11T15:23:54.583Z,47.33
2023-05-11T15:26:22.157Z,47.56
2023-05-11T15:28:49.199Z,48.03
2023-05-11T15:31:15.995Z,49.66
2023-05-11T15:33:43.186Z,50.73
2023-05-11T15:36:15.142Z,52.46
2023-05-11T15:38:43.361Z,54.73
2023-05-11T15:41:10.481Z,56.39
2023-05-11T15:43:37.219Z,57.85
2023-05-11T15:46:04.892Z,58.52
2023-05-11T15:48:31.665Z,61.08
2023-05-11T15:51:02.019Z,60.27
2023-05-11T15:53:28.957Z,61.19
2023-05-11T15:55:56.578Z,61.64
2023-05-11T15:58:23.409Z,62.07
2023-05-11T16:00:50.313Z,62.31
2023-05-11T16:03:17.396Z,63.02
2023-05-11T16:05:44.903Z,62.44
2023-05-11T16:08:12.180Z,62.83
2023-05-11T16:10:39.131Z,62.73
2023-05-11T16:13:06.378Z,63.06
2023-05-11T16:15:33.044Z,62.38
2023-05-11T16:18:01.550Z,61.60
2023-05-11T16:20:30.883Z,61.88
2023-05-11T16:22:57.554Z,61.39
2023-05-11T16:25:24.317Z,61.73
2023-05-11T16:27:51.122Z,60.99
2023-05-11T16:30:24.906Z,61.14
2023-05-11T16:32:53.100Z,62.54
2023-05-11T16:35:20.452Z,62.01
2023-05-11T16:37:48.037Z,61.65
2023-05-11T16:40:19.042Z,61.68
2023-05-11T16:42:47.347Z,62.78
2023-05-11T16:45:15.032Z,62.43
2023-05-11T16:47:41.952Z,62.74
2023-05-11T16:50:09.243Z,61.54
2023-05-11T16:52:35.969Z,61.65
2023-05-11T16:55:03.677Z,61.24
2023-05-11T16:57:31.814Z,60.69
2023-05-11T16:59:58.579Z,60.85
2023-05-11T17:02:25.269Z,60.20
2023-05-11T17:04:52.097Z,60.77
2023-05-11T17:07:18.762Z,58.68
2023-05-11T17:09:45.777Z,58.47
2023-05-11T17:12:12.478Z,58.78
2023-05-11T17:14:39.081Z,58.55
2023-05-11T17:17:07.572Z,58.43
2023-05-11T17:19:34.640Z,58.28
2023-05-11T17:22:01.350Z,58.05
2023-05-11T17:24:28.676Z,58.73
2023-05-11T17:26:55.554Z,57.85
2023-05-11T17:29:22.634Z,58.46
2023-05-11T17:31:51.708Z,59.40
2023-05-11T17:34:19.394Z,59.76
2023-05-11T17:36:46.485Z,60.73
2023-05-11T17:39:13.263Z,60.37
2023-05-11T17:41:39.952Z,60.08
2023-05-11T17:44:06.694Z,60.93
2023-05-11T17:46:34.459Z,62.40
2023-05-11T17:49:01.677Z,63.11
2023-05-11T17:51:28.493Z,63.72
2023-05-11T17:53:56.134Z,64.56
2023-05-11T17:56:22.797Z,63.10
2023-05-11T17:58:51.655Z,63.79
2023-05-11T18:01:19.727Z,64.01
2023-05-11T18:03:46.897Z,62.73
2023-05-11T18:06:13.935Z,62.32
2023-05-11T18:08:40.939Z,62.32
2023-05-11T18:11:10.095Z,62.18
2023-05-11T18:13:36.858Z,62.26
2023-05-11T18:16:04.020Z,64.01
2023-05-11T18:18:30.817Z,65.17
2023-05-11T18:20:57.618Z,64.63
2023-05-11T18:23:24.375Z,65.27
2023-05-11T18:25:51.038Z,63.88
2023-05-11T18:28:17.683Z,63.06
2023-05-11T18:30:44.353Z,62.94
2023-05-11T18:33:11.051Z,62.62
2023-05-11T18:35:40.268Z,63.89
2023-05-11T18:38:07.493Z,63.76
2023-05-11T18:40:35.127Z,64.49
2023-05-11T18:43:01.838Z,65.00
2023-05-11T18:45:30.430Z,66.80
2023-05-11T18:47:57.230Z,68.25
2023-05-11T18:50:24.002Z,69.64
2023-05-11T18:52:50.725Z,68.94
2023-05-11T18:55:17.900Z,68.92
2023-05-11T18:57:45.043Z,69.01
2023-05-11T19:00:12.135Z,71.12
2023-05-11T19:02:38.945Z,72.59
2023-05-11T19:05:06.118Z,71.73
2023-05-11T19:07:33.095Z,72.17
2023-05-11T19:09:59.882Z,71.76
2023-05-11T19:12:27.318Z,71.32
2023-05-11T19:14:56.171Z,72.93
2023-05-11T19:17:23.426Z,72.55
2023-05-11T19:19:50.192Z,73.22
2023-05-11T19:22:17.444Z,72.92
2023-05-11T19:24:44.195Z,72.66
2023-05-11T19:27:10.890Z,72.52
2023-05-11T19:29:37.611Z,72.19
2023-05-11T19:32:04.708Z,73.66
2023-05-11T19:34:31.637Z,74.61
2023-05-11T19:36:58.372Z,74.69
2023-05-11T19:39:25.055Z,75.25
2023-05-11T19:41:51.850Z,75.45
2023-05-11T19:44:18.905Z,75.86
2023-05-11T19:46:47.203Z,76.95
2023-05-11T19:49:15.253Z,76.12
2023-05-11T19:51:42.243Z,76.57
2023-05-11T19:54:09.618Z,78.05
2023-05-11T19:56:36.463Z,78.66
2023-05-11T19:59:04.563Z,78.67
2023-05-11T20:01:31.642Z,78.74
2023-05-11T20:03:58.753Z,79.23
2023-05-11T20:06:25.934Z,80.02
2023-05-11T20:08:53.156Z,80.94
2023-05-11T20:11:22.180Z,79.89
2023-05-11T20:13:49.286Z,80.43
2023-05-11T20:16:16.236Z,80.84
2023-05-11T20:18:43.083Z,80.06
2023-05-11T20:21:10.014Z,81.28
2023-05-11T20:23:37.724Z,81.02
2023-05-11T20:26:04.856Z,82.00
2023-05-11T20:28:32.001Z,82.42
2023-05-11T20:30:59.064Z,81.72
2023-05-11T20:35:55.557Z,83.12
2023-05-11T20:38:22.422Z,83.48
2023-05-11T20:40:49.096Z,83.65
2023-05-11T20:43:16.691Z,83.89
2023-05-11T20:45:43.805Z,83.72
2023-05-11T20:48:10.957Z,84.72
2023-05-11T20:50:39.344Z,83.82
2023-05-11T20:53:06.173Z,85.01
2023-05-11T20:55:32.951Z,85.69
2023-05-11T20:57:59.757Z,86.12
2023-05-11T21:00:26.501Z,85.76
2023-05-11T21:02:53.216Z,85.69
2023-05-11T21:05:20.201Z,86.09
2023-05-11T21:07:46.893Z,86.05
2023-05-11T21:10:14.092Z,86.84
2023-05-11T21:12:40.804Z,87.14
2023-05-11T21:15:08.020Z,86.99
2023-05-11T21:17:35.775Z,87.77
2023-05-11T21:20:05.245Z,89.07
2023-05-11T21:22:33.392Z,89.55
2023-05-11T21:25:00.169Z,89.28
2023-05-11T21:27:26.991Z,89.89
2023-05-11T21:29:53.655Z,90.18
2023-05-11T21:32:20.382Z,90.77
2023-05-11T21:34:47.101Z,90.66
2023-05-11T21:37:14.800Z,91.29
2023-05-11T21:39:42.128Z,91.10
2023-05-11T21:42:08.795Z,91.35
2023-05-11T21:44:35.526Z,91.39
2023-05-11T21:47:02.193Z,91.93
2023-05-11T21:49:28.884Z,92.25
2023-05-11T21:51:55.655Z,92.88
2023-05-11T21:54:22.553Z,93.42
2023-05-11T21:56:50.184Z,93.86
2023-05-11T21:59:17.864Z,94.65
2023-05-11T22:01:45.642Z,95.20
2023-05-11T22:04:12.596Z,95.62
2023-05-11T22:06:39.647Z,95.57
2023-05-11T22:09:06.360Z,96.66
2023-05-11T22:11:34.153Z,97.03
2023-05-11T22:14:00.781Z,97.28
2023-05-11T22:16:27.701Z,97.62
2023-05-11T22:18:54.406Z,98.04
2023-05-11T22:21:21.163Z,97.97
2023-05-11T22:23:47.919Z,98.55
2023-05-11T22:26:14.645Z,98.20
2023-05-11T22:28:41.374Z,97.80
2023-05-11T22:31:08.156Z,98.43
2023-05-11T22:33:34.860Z,98.33
2023-05-11T22:36:01.576Z,98.64
2023-05-11T22:38:28.287Z,98.54
2023-05-11T22:40:55.012Z,98.40
2023-05-11T22:43:22.007Z,98.67
2023-05-11T22:45:49.475Z,99.18
2023-05-11T22:48:16.783Z,99.81
2023-05-11T22:50:47.390Z,100.00
2023-05-11T22:53:14.687Z,100.00
2023-05-11T22:55:42.173Z,100.00
2023-05-11T22:58:08.911Z,100.00
2023-05-11T23:00:35.956Z,100.00
2023-05-11T23:03:03.590Z,100.00
2023-05-11T23:05:30.527Z,100.00
2023-05-11T23:07:59.733Z,100.00
2023-05-11T23:10:29.774Z,100.00
2023-05-11T23:12:56.868Z,100.00
2023-05-11T23:15:23.538Z,100.00
2023-05-11T23:17:50.476Z,100.00
2023-05-11T23:20:17.420Z,100.00
2023-05-11T23:22:44.110Z,100.00
2023-05-11T23:25:11.045Z,100.00
2023-05-11T23:27:37.908Z,100.00
2023-05-11T23:30:05.038Z,100.00
2023-05-11T23:32:31.876Z,100.00
2023-05-11T23:34:58.734Z,100.00
2023-05-11T23:37:25.618Z,100.00
2023-05-11T23:39:52.840Z,100.00
2023-05-11T23:42:19.557Z,100.00
2023-05-11T23:44:46.619Z,100.00
2023-05-11T23:47:13.430Z,100.00
2023-05-11T23:49:40.124Z,100.00
2023-05-11T23:52:07.253Z,100.00
2023-05-11T23:54:34.175Z,100.00
2023-05-11T23:57:02.076Z,100.00
2023-05-11T23:59:28.689Z,100.00
